Time;durP1;ratioP1;P1;durP2;ratioP2;P2;SDS_P1;SDS_P2;PMS_P1;PMS_P2;Temp;Humidity;BMP_temperature;BMP_pressure;BME280_temperature;BME280_humidity;BME280_pressure;Samples;Min_cycle;Max_cycle;Signal;HPM_P1;HPM_P2
2022/10/17 00:02:24;;;;;;;10.07;7.10;;;;;;;14.18;58.19;101043.16;7712189;32;38942;-82
2022/10/17 00:06:40;;;;;;;13.02;7.20;;;;;;;13.87;59.78;101051.19;7711881;32;37905;-82
2022/10/17 00:11:03;;;;;;;12.18;7.35;;;;;;;13.82;59.27;101053.06;7711691;32;40118;-83
2022/10/17 00:15:20;;;;;;;11.90;7.03;;;;;;;13.99;59.04;101055.66;7698305;32;39774;-82
2022/10/17 00:19:36;;;;;;;14.43;8.00;;;;;;;13.75;59.45;101045.06;7711825;32;38810;-82
2022/10/17 00:23:52;;;;;;;15.05;7.78;;;;;;;13.75;59.54;101050.56;7712065;32;37240;-82
2022/10/17 00:28:10;;;;;;;13.43;8.27;;;;;;;14.17;58.05;101055.22;7711631;32;40110;-83
2022/10/17 00:32:26;;;;;;;15.60;7.87;;;;;;;13.90;59.22;101045.19;7711886;32;40156;-82
2022/10/17 00:36:42;;;;;;;14.13;8.27;;;;;;;14.09;58.41;101044.75;7711557;32;38660;-81
2022/10/17 00:40:59;;;;;;;15.38;8.20;;;;;;;13.76;59.58;101048.62;7711659;32;37088;-82
2022/10/17 00:45:20;;;;;;;14.02;8.30;;;;;;;13.96;58.84;101050.69;7711592;32;39281;-82
2022/10/17 00:49:37;;;;;;;15.68;7.20;;;;;;;13.84;58.83;101043.47;7710812;32;39988;-85
2022/10/17 00:53:53;;;;;;;15.27;7.78;;;;;;;13.76;59.65;101038.47;7711624;32;38297;-85
2022/10/17 00:58:09;;;;;;;13.30;8.18;;;;;;;13.57;60.52;101045.47;7711576;32;36867;-84
2022/10/17 01:02:25;;;;;;;14.57;7.03;;;;;;;13.50;60.53;101042.94;7697754;32;39367;-82
2022/10/17 01:06:42;;;;;;;11.38;6.90;;;;;;;13.33;60.24;101049.38;7711282;32;39903;-83
2022/10/17 01:11:07;;;;;;;15.23;7.90;;;;;;;13.63;59.11;101036.22;7710782;32;37919;-83
2022/10/17 01:15:42;;;;;;;12.55;7.90;;;;;;;13.61;59.58;101046.59;7698149;32;37386;-80
2022/10/17 01:20:17;;;;;;;13.45;7.35;;;;;;;13.25;61.46;101052.53;7699351;32;39443;-82
2022/10/17 01:25:20;;;;;;;18.83;9.13;;;;;;;13.47;60.61;101047.03;7711414;32;39725;-82
2022/10/17 01:29:56;;;;;;;12.33;7.70;;;;;;;13.30;61.94;101049.03;7705928;32;38776;-82
2022/10/17 01:34:30;;;;;;;12.60;8.25;;;;;;;13.52;60.87;101057.19;7710838;32;37229;-82
2022/10/17 01:38:49;;;;;;;15.50;8.23;;;;;;;13.67;64.96;101054.59;7698593;32;39255;-83
2022/10/17 01:43:15;;;;;;;13.45;7.50;;;;;;;13.67;60.71;101048.28;7697754;32;40508;-81
2022/10/17 01:47:32;;;;;;;14.00;8.23;;;;;;;13.64;59.50;101048.81;7710779;32;37549;-82
2022/10/17 01:51:51;;;;;;;16.73;8.80;;;;;;;13.31;60.43;101058.88;7697361;32;37184;-82
2022/10/17 01:56:08;;;;;;;15.98;8.07;;;;;;;13.20;61.07;101059.91;7711108;32;39323;-81
2022/10/17 02:00:26;;;;;;;14.95;7.45;;;;;;;13.21;60.52;101058.78;7710249;32;40508;-82
2022/10/17 02:04:42;;;;;;;12.30;7.78;;;;;;;13.27;60.71;101055.03;7709092;32;37968;-85
2022/10/17 02:08:58;;;;;;;14.77;8.23;;;;;;;13.47;59.87;101066.22;7696481;32;37174;-84
2022/10/17 02:13:26;;;;;;;12.32;7.55;;;;;;;13.23;60.79;101070.31;7710670;32;39365;-85
2022/10/17 02:18:00;;;;;;;11.38;7.20;;;;;;;13.40;59.91;101064.75;7709899;32;39887;-85
2022/10/17 02:22:36;;;;;;;15.23;8.43;;;;;;;13.52;59.25;101070.87;7710385;32;37905;-85
2022/10/17 02:27:03;;;;;;;16.73;7.43;;;;;;;12.95;62.63;101069.47;7709900;32;37902;-85
2022/10/17 02:31:29;;;;;;;16.85;7.85;;;;;;;13.24;60.53;101058.28;7697260;32;39872;-84
2022/10/17 02:35:50;;;;;;;15.30;7.75;;;;;;;13.24;60.30;101078.25;7696521;32;39928;-81
2022/10/17 02:40:08;;;;;;;13.95;7.75;;;;;;;13.22;60.53;101066.75;7696772;32;38693;-81
2022/10/17 02:44:25;;;;;;;14.85;8.38;;;;;;;13.03;60.49;101068.19;7696512;32;38158;-81
2022/10/17 02:48:45;;;;;;;10.40;7.28;;;;;;;12.94;60.95;101065.09;7708602;32;39396;-81
2022/10/17 02:53:08;;;;;;;11.45;7.37;;;;;;;13.10;60.41;101072.38;7696311;32;40986;-82
2022/10/17 02:57:34;;;;;;;16.47;8.00;;;;;;;13.26;59.87;101072.53;7695411;32;37611;-83
2022/10/17 03:01:50;;;;;;;14.65;7.22;;;;;;;12.95;60.31;101072.19;7709802;32;37260;-81
2022/10/17 03:06:06;;;;;;;15.00;6.93;;;;;;;13.01;60.08;101082.13;7708388;32;39180;-82
2022/10/17 03:10:23;;;;;;;13.80;7.70;;;;;;;12.55;61.40;101081.56;7709204;32;39985;-81
2022/10/17 03:14:39;;;;;;;16.83;7.10;;;;;;;12.81;60.83;101084.63;7710812;32;37895;-81
2022/10/17 03:18:55;;;;;;;15.02;7.50;;;;;;;13.13;60.06;101082.00;7713114;32;37109;-81
2022/10/17 03:23:11;;;;;;;13.62;7.70;;;;;;;13.23;59.69;101097.69;7712890;32;39036;-82
2022/10/17 03:27:27;;;;;;;14.70;7.70;;;;;;;13.06;60.76;101095.06;7712807;32;39807;-80
2022/10/17 03:31:43;;;;;;;15.07;7.75;;;;;;;12.75;61.29;101108.37;7712851;32;38176;-81
2022/10/17 03:36:03;;;;;;;15.32;8.40;;;;;;;12.75;61.16;101111.13;7712863;32;37644;-81
2022/10/17 03:40:19;;;;;;;12.82;7.00;;;;;;;12.70;62.21;101114.59;7712852;32;40005;-81
2022/10/17 03:44:35;;;;;;;14.93;7.72;;;;;;;12.96;60.47;101123.12;7712691;32;40001;-81
2022/10/17 03:48:51;;;;;;;12.18;7.37;;;;;;;12.90;60.71;101124.16;7712543;32;38098;-81
2022/10/17 03:53:07;;;;;;;15.13;7.32;;;;;;;13.09;59.96;101122.75;7712609;32;37284;-82
2022/10/17 03:57:23;;;;;;;11.10;7.12;;;;;;;13.04;59.75;101127.31;7712803;32;39351;-81
2022/10/17 04:01:40;;;;;;;12.82;6.85;;;;;;;12.84;60.40;101130.66;7712475;32;40166;-81
2022/10/17 04:05:59;;;;;;;12.40;7.03;;;;;;;12.94;60.12;101128.03;7712218;32;37873;-82
2022/10/17 04:10:15;;;;;;;12.20;6.55;;;;;;;12.89;60.00;101130.72;7712292;32;38533;-81
2022/10/17 04:14:31;;;;;;;14.68;7.93;;;;;;;12.94;59.63;101133.53;7712392;32;39260;-84
2022/10/17 04:18:51;;;;;;;12.70;7.20;;;;;;;12.39;61.80;101144.25;7712252;32;41233;-84
2022/10/17 04:23:07;;;;;;;13.02;7.15;;;;;;;12.81;60.28;101155.78;7712319;32;38246;-85
2022/10/17 04:27:23;;;;;;;11.77;7.25;;;;;;;12.84;60.23;101149.81;7711294;32;36937;-84
2022/10/17 04:31:39;;;;;;;14.82;7.43;;;;;;;12.92;59.63;101147.44;7712216;32;39882;-81
2022/10/17 04:36:22;;;;;;;14.57;6.93;;;;;;;12.84;59.71;101156.09;7712146;32;39871;-81
2022/10/17 04:40:38;;;;;;;12.65;6.70;;;;;;;12.92;59.46;101152.13;7699236;32;38627;-84
2022/10/17 04:44:54;;;;;;;10.43;6.55;;;;;;;12.96;59.41;101147.78;7712022;32;37387;-84
2022/10/17 04:49:10;;;;;;;11.20;6.65;;;;;;;12.82;59.61;101146.50;7711770;32;40133;-81
2022/10/17 04:53:29;;;;;;;16.33;6.80;;;;;;;12.78;59.71;101155.22;7711928;32;40895;-81
2022/10/17 04:57:45;;;;;;;11.60;7.25;;;;;;;12.81;60.04;101150.31;7711826;32;37642;-81
2022/10/17 05:02:01;;;;;;;16.85;7.97;;;;;;;12.93;59.32;101159.22;7711779;32;37231;-81
2022/10/17 05:06:23;;;;;;;13.55;7.78;;;;;;;12.57;60.61;101156.00;7711643;32;39432;-84
2022/10/17 05:10:41;;;;;;;22.05;8.38;;;;;;;12.39;62.63;101163.41;7711609;32;41676;-84
2022/10/17 05:14:57;;;;;;;16.80;8.77;;;;;;;12.53;61.36;101161.16;7711636;32;37931;-82
2022/10/17 05:19:13;;;;;;;13.98;7.72;;;;;;;11.83;65.46;101179.69;7711590;32;37180;-83
2022/10/17 05:23:30;;;;;;;13.70;7.60;;;;;;;12.29;62.57;101170.62;7711678;32;39256;-83
2022/10/17 05:27:46;;;;;;;14.23;8.13;;;;;;;12.51;61.29;101181.63;7711446;32;40116;-83
2022/10/17 05:32:02;;;;;;;14.00;7.97;;;;;;;12.14;62.07;101190.34;7711317;32;38756;-83
2022/10/17 05:36:18;;;;;;;14.00;7.55;;;;;;;12.27;62.05;101200.97;7711171;32;38167;-84
2022/10/17 05:40:34;;;;;;;17.08;9.20;;;;;;;12.10;62.89;101200.13;7711326;32;39379;-83
2022/10/17 05:44:50;;;;;;;17.45;9.43;;;;;;;11.52;66.33;101207.50;7711186;32;41016;-83
2022/10/17 05:49:08;;;;;;;16.60;9.45;;;;;;;11.42;67.69;101216.34;7711080;32;38839;-81
2022/10/17 05:53:41;;;;;;;17.15;9.07;;;;;;;11.88;66.41;101217.19;7699552;32;35735;-79
2022/10/17 05:57:58;;;;;;;17.08;8.38;;;;;;;11.82;68.41;101226.37;7697450;32;39294;-81
2022/10/17 06:02:14;;;;;;;15.05;8.32;;;;;;;12.21;66.15;101240.22;7711093;32;40986;-79
2022/10/17 06:06:31;;;;;;;15.15;8.90;;;;;;;12.34;65.21;101242.63;7710619;32;37938;-80
2022/10/17 06:10:48;;;;;;;15.52;9.07;;;;;;;12.10;65.79;101250.16;7710986;32;36809;-78
2022/10/17 06:15:04;;;;;;;16.02;9.13;;;;;;;12.17;66.03;101259.03;7710694;32;39342;-77
2022/10/17 06:19:20;;;;;;;22.55;9.63;;;;;;;12.82;64.21;101256.78;7710719;32;40221;-77
2022/10/17 06:23:37;;;;;;;22.58;9.65;;;;;;;13.10;62.54;101253.06;7696803;32;38777;-83
2022/10/17 06:27:52;;;;;;;18.60;9.02;;;;;;;12.88;62.86;101260.41;7710502;32;37115;-85
2022/10/17 06:32:09;;;;;;;18.10;9.27;;;;;;;13.02;62.54;101272.69;7710527;32;39270;-83
2022/10/17 06:36:29;;;;;;;15.82;8.60;;;;;;;13.10;62.67;101274.97;7697241;32;40881;-85
2022/10/17 06:40:46;;;;;;;20.15;9.43;;;;;;;12.03;66.95;101294.03;7710310;32;38681;-89
2022/10/17 06:45:02;;;;;;;17.65;10.18;;;;;;;12.30;65.72;101287.16;7696468;32;37630;-89
2022/10/17 06:49:18;;;;;;;23.08;10.77;;;;;;;12.91;64.34;101290.03;7711282;32;40003;-89
2022/10/17 06:53:34;;;;;;;14.65;7.50;;;;;;;13.48;62.17;101288.94;7713187;32;39892;-87
2022/10/17 06:57:52;;;;;;;13.88;7.78;;;;;;;13.69;60.19;101287.25;7713190;32;38080;-88
2022/10/17 07:02:11;;;;;;;17.08;8.25;;;;;;;13.65;58.72;101303.38;7713331;32;37483;-87
2022/10/17 07:06:27;;;;;;;11.73;7.22;;;;;;;14.36;56.98;101296.19;7713393;32;39894;-88
2022/10/17 07:10:43;;;;;;;26.12;8.57;;;;;;;14.82;55.89;101305.66;7714112;32;40020;-87
2022/10/17 07:15:00;;;;;;;16.20;7.70;;;;;;;15.10;55.15;101311.06;7713107;32;38001;-87
2022/10/17 07:19:16;;;;;;;17.15;7.50;;;;;;;15.32;53.97;101309.00;7713449;32;37296;-87
2022/10/17 07:23:35;;;;;;;12.10;7.32;;;;;;;15.70;52.80;101314.41;7713541;32;39279;-88
2022/10/17 07:27:51;;;;;;;16.00;7.45;;;;;;;15.50;53.38;101315.13;7713756;32;40719;-86
2022/10/17 07:32:07;;;;;;;13.35;6.80;;;;;;;15.76;52.59;101314.19;7713447;32;37946;-87
2022/10/17 07:36:24;;;;;;;15.27;7.78;;;;;;;16.01;52.19;101315.34;7713325;32;37188;-88
2022/10/17 07:40:40;;;;;;;15.77;7.30;;;;;;;16.25;50.78;101320.38;7712590;32;39397;-89
2022/10/17 07:44:56;;;;;;;17.33;7.28;;;;;;;16.39;50.03;101321.47;7712453;32;39957;-87
2022/10/17 07:49:12;;;;;;;13.75;6.95;;;;;;;16.85;49.19;101321.50;7712337;32;38615;-87
2022/10/17 07:53:28;;;;;;;13.15;7.25;;;;;;;17.06;48.52;101324.25;7712395;32;37809;-88
2022/10/17 07:57:44;;;;;;;12.95;7.03;;;;;;;17.18;47.40;101322.00;7712498;32;40005;-88
2022/10/17 08:02:00;;;;;;;12.85;6.72;;;;;;;17.27;47.75;101319.50;7712228;32;40739;-88
2022/10/17 08:06:16;;;;;;;13.80;7.05;;;;;;;17.56;46.42;101314.19;7712383;32;37861;-77
2022/10/17 08:10:33;;;;;;;15.60;6.65;;;;;;;17.69;45.89;101320.19;7712267;32;37047;-87
2022/10/17 08:14:49;;;;;;;14.10;7.32;;;;;;;17.95;45.32;101324.50;7712302;32;39209;-87
2022/10/17 08:19:05;;;;;;;13.88;7.10;;;;;;;18.05;44.65;101317.28;7712337;32;39934;-76
2022/10/17 08:23:27;;;;;;;16.25;7.22;;;;;;;18.26;43.94;101318.78;7712188;32;38859;-80
2022/10/17 08:27:43;;;;;;;11.32;6.80;;;;;;;18.30;43.52;101319.88;7712136;32;37119;-79
2022/10/17 08:31:59;;;;;;;11.65;6.07;;;;;;;18.37;43.83;101322.34;7712183;32;40064;-84
2022/10/17 08:36:19;;;;;;;14.75;6.45;;;;;;;18.85;42.74;101327.22;7712127;32;41644;-83
2022/10/17 08:40:37;;;;;;;13.75;6.10;;;;;;;18.96;41.87;101326.00;7711990;32;40028;-85
2022/10/17 08:45:02;;;;;;;11.23;6.50;;;;;;;19.46;41.48;101329.34;7711963;32;37145;-84
2022/10/17 08:49:46;;;;;;;10.88;6.12;;;;;;;19.70;40.66;101322.97;7711946;32;39177;-85
2022/10/17 08:54:19;;;;;;;11.65;6.47;;;;;;;19.98;40.18;101317.66;7711863;32;40817;-83
2022/10/17 08:58:35;;;;;;;10.48;5.93;;;;;;;20.23;40.43;101322.84;7698391;32;38666;-84
2022/10/17 09:03:31;;;;;;;12.20;5.65;;;;;;;20.67;39.65;101314.44;7711771;32;37024;-81
2022/10/17 09:08:14;;;;;;;11.23;5.97;;;;;;;21.06;38.78;101319.56;7683261;32;39895;-85
2022/10/17 09:12:45;;;;;;;9.90;5.55;;;;;;;21.33;38.31;101310.41;7698031;32;40696;-84
2022/10/17 09:17:15;;;;;;;10.77;5.35;;;;;;;21.67;37.15;101309.22;7711316;32;38669;-83
2022/10/17 09:21:54;;;;;;;12.27;5.32;;;;;;;21.85;37.02;101304.69;7711386;32;37188;-82
2022/10/17 09:26:10;;;;;;;11.85;5.07;;;;;;;21.87;36.58;101294.09;7711230;32;39079;-82
2022/10/17 09:30:26;;;;;;;13.68;5.10;;;;;;;21.91;36.33;101300.63;7710531;32;39971;-82
2022/10/17 09:35:00;;;;;;;9.80;5.05;;;;;;;22.58;35.89;101295.50;7709048;32;38785;-82
2022/10/17 09:39:17;;;;;;;10.52;5.22;;;;;;;22.74;34.86;101298.72;7708025;32;37911;-83
2022/10/17 09:43:33;;;;;;;9.07;4.62;;;;;;;23.12;34.90;101296.31;7709835;32;40058;-84
2022/10/17 09:48:22;;;;;;;8.27;4.60;;;;;;;23.14;35.27;101296.81;7709071;32;40101;-83
2022/10/17 09:52:46;;;;;;;8.68;4.95;;;;;;;23.42;33.49;101300.22;7674316;32;38863;-83
2022/10/17 09:57:08;;;;;;;9.18;4.85;;;;;;;23.71;33.69;101297.97;7694846;32;37347;-82
2022/10/17 10:01:30;;;;;;;14.15;4.75;;;;;;;24.00;32.78;101295.44;7695628;32;40194;-83
2022/10/17 10:06:00;;;;;;;11.32;5.07;;;;;;;24.52;32.86;101304.94;7710886;32;40747;-83
2022/10/17 10:10:27;;;;;;;11.80;5.28;;;;;;;24.46;32.54;101295.91;7710744;32;38730;-82
2022/10/17 10:14:45;;;;;;;9.30;5.30;;;;;;;24.81;32.57;101297.87;7697384;32;37708;-83
2022/10/17 10:19:18;;;;;;;11.90;5.22;;;;;;;25.06;32.44;101294.16;7710960;32;39291;-83
2022/10/17 10:23:38;;;;;;;12.73;5.90;;;;;;;24.89;32.26;101289.47;7709514;32;39911;-83
2022/10/17 10:27:55;;;;;;;9.63;4.95;;;;;;;25.63;31.23;101286.50;7697349;32;37631;-82
2022/10/17 10:32:46;;;;;;;10.10;5.43;;;;;;;25.90;30.57;101276.00;7710650;32;36911;-82
2022/10/17 10:37:05;;;;;;;12.90;5.15;;;;;;;26.10;29.98;101278.00;7698257;32;39382;-81
2022/10/17 10:41:21;;;;;;;9.73;5.25;;;;;;;26.14;30.07;101278.94;7710249;32;39742;-81
2022/10/17 10:45:37;;;;;;;10.68;4.43;;;;;;;26.66;29.36;101265.66;7709923;32;38511;-81
2022/10/17 10:50:19;;;;;;;12.85;5.05;;;;;;;26.95;29.00;101262.69;7709714;32;38009;-81
2022/10/17 10:54:41;;;;;;;8.25;4.68;;;;;;;26.93;27.99;101261.41;7696508;32;39314;-81
2022/10/17 10:59:06;;;;;;;7.90;4.45;;;;;;;27.27;27.21;101262.09;7696374;32;40699;-81
2022/10/17 11:03:39;;;;;;;10.38;4.55;;;;;;;27.37;27.03;101258.88;7696101;32;38697;-82
2022/10/17 11:08:15;;;;;;;9.27;4.55;;;;;;;27.32;27.40;101268.34;7709216;32;39043;-82
2022/10/17 11:12:57;;;;;;;8.05;4.53;;;;;;;27.26;27.91;101272.50;7709383;32;39334;-80
2022/10/17 11:17:41;;;;;;;11.37;4.60;;;;;;;27.32;26.76;101265.53;7697522;32;39589;-80
2022/10/17 11:22:03;;;;;;;9.77;4.30;;;;;;;27.84;26.74;101257.53;7709028;32;38717;-82
2022/10/17 11:26:25;;;;;;;10.50;4.73;;;;;;;28.02;25.32;101258.88;7709252;32;37243;-80
2022/10/17 11:31:02;;;;;;;11.90;4.20;;;;;;;27.50;26.50;101249.28;7695933;32;39376;-76
2022/10/17 11:35:32;;;;;;;13.07;3.90;;;;;;;27.95;26.17;101247.47;7697687;32;40021;-75
2022/10/17 11:39:52;;;;;;;11.45;4.03;;;;;;;27.71;25.84;101243.53;7712609;32;38106;-79
2022/10/17 11:44:21;;;;;;;7.05;3.70;;;;;;;27.39;25.54;101241.72;7699345;32;37152;-78
2022/10/17 11:48:53;;;;;;;7.15;3.78;;;;;;;28.08;24.26;101228.66;7699734;32;37261;-79
2022/10/17 11:53:16;;;;;;;12.00;3.75;;;;;;;27.96;24.63;101243.50;7712668;32;40905;-79
2022/10/17 11:57:39;;;;;;;7.65;3.30;;;;;;;28.18;23.91;101244.13;7712482;32;38842;-80
2022/10/17 12:02:10;;;;;;;6.30;3.78;;;;;;;28.18;23.04;101233.75;7712548;32;37850;-80
2022/10/17 12:06:59;;;;;;;10.05;4.03;;;;;;;28.10;23.65;101235.50;7699692;32;39371;-80
2022/10/17 12:11:34;;;;;;;8.70;3.80;;;;;;;27.92;23.56;101231.38;7700493;32;41528;-83
2022/10/17 12:15:50;;;;;;;10.27;3.97;;;;;;;27.96;22.58;101221.09;7712268;32;38151;-81
2022/10/17 12:20:26;;;;;;;16.80;6.45;;;;;;;27.83;22.69;101217.47;7698589;32;37154;-82
2022/10/17 12:24:44;;;;;;;8.25;4.57;;;;;;;27.78;22.81;101222.53;7712115;32;39406;-81
2022/10/17 12:29:00;;;;;;;8.95;3.62;;;;;;;28.28;23.37;101215.56;7712174;32;39882;-81
2022/10/17 12:33:30;;;;;;;8.73;3.20;;;;;;;28.27;22.60;101209.16;7698348;32;37874;-80
2022/10/17 12:37:49;;;;;;;8.75;4.20;;;;;;;28.67;21.13;101204.62;7698468;32;37855;-81
2022/10/17 12:42:28;;;;;;;9.05;3.90;;;;;;;27.29;23.88;101210.25;7707210;32;39132;-80
2022/10/17 12:47:04;;;;;;;8.02;3.33;;;;;;;27.99;22.45;101205.53;7671791;32;40900;-81
2022/10/17 12:51:21;;;;;;;11.43;3.90;;;;;;;28.07;22.93;101199.78;7700446;32;38150;-79
2022/10/17 12:55:59;;;;;;;8.80;3.67;;;;;;;28.21;22.97;101198.56;7711770;32;37022;-81
2022/10/17 13:00:42;;;;;;;9.38;3.95;;;;;;;28.52;21.70;101196.97;7698860;32;39385;-81
2022/10/17 13:05:36;;;;;;;11.38;4.43;;;;;;;28.16;22.20;101198.81;7711620;32;40034;-80
2022/10/17 13:09:52;;;;;;;17.77;4.85;;;;;;;27.89;21.78;101204.84;7711258;32;38648;-80
2022/10/17 13:14:14;;;;;;;13.68;3.97;;;;;;;28.16;21.46;101196.81;7698072;32;37139;-78
2022/10/17 13:18:30;;;;;;;8.85;3.60;;;;;;;28.25;23.03;101200.28;7698662;32;40220;-79
2022/10/17 13:22:46;;;;;;;11.75;4.50;;;;;;;28.41;21.20;101197.50;7711512;32;40789;-78
2022/10/17 13:27:03;;;;;;;6.87;3.37;;;;;;;27.92;22.54;101203.34;7711443;32;37884;-76
2022/10/17 13:31:43;;;;;;;10.52;4.28;;;;;;;28.35;22.91;101198.94;7711427;32;38351;-74
2022/10/17 13:36:01;;;;;;;11.30;4.00;;;;;;;28.59;23.02;101191.59;7704048;32;40070;-78
2022/10/17 13:40:24;;;;;;;9.85;4.28;;;;;;;28.70;23.42;101189.03;7697832;32;41114;-84
2022/10/17 13:45:00;;;;;;;;;;;;;;;28.95;22.00;101181.25;7697126;32;38269;-84
2022/10/17 13:49:26;;;;;;;11.48;5.00;;;;;;;28.94;21.59;101185.22;7700907;32;36960;-84
2022/10/17 13:53:43;;;;;;;11.40;5.50;;;;;;;29.44;20.78;101175.19;7684270;32;40109;-82
2022/10/17 13:58:16;;;;;;;7.75;4.07;;;;;;;29.23;21.18;101177.53;7683309;32;39717;-82
2022/10/17 14:02:33;;;;;;;9.35;3.72;;;;;;;29.36;20.90;101181.84;7683983;32;38077;-81
2022/10/17 14:06:49;;;;;;;12.32;5.07;;;;;;;29.43;20.90;101178.38;7670065;32;36808;-81
2022/10/17 14:11:21;;;;;;;10.35;4.65;;;;;;;29.39;20.45;101179.13;7684069;32;39288;-82
2022/10/17 14:15:44;;;;;;;11.85;4.72;;;;;;;29.15;20.59;101170.91;7683756;32;39864;-82
2022/10/17 14:20:04;;;;;;;13.15;4.60;;;;;;;27.93;22.17;101188.16;7683445;32;37854;-81
2022/10/17 14:24:42;;;;;;;7.85;3.70;;;;;;;28.43;22.64;101171.91;7683146;32;37657;-81
2022/10/17 14:29:22;;;;;;;10.73;4.05;;;;;;;28.98;21.78;101177.72;7683295;32;39559;-81
2022/10/17 14:33:42;;;;;;;6.62;3.60;;;;;;;29.29;21.17;101173.28;7680108;32;39859;-81
2022/10/17 14:38:03;;;;;;;6.77;4.00;;;;;;;28.96;21.15;101168.84;7669871;32;38727;-81
2022/10/17 14:42:20;;;;;;;9.35;3.97;;;;;;;29.78;20.76;101178.34;7683859;32;36049;-82
2022/10/17 14:46:37;;;;;;;8.27;3.58;;;;;;;30.70;20.01;101183.31;7669707;32;39349;-81
2022/10/17 14:51:11;;;;;;;7.50;4.00;;;;;;;32.49;17.04;101176.47;7683015;32;40566;-83
2022/10/17 14:55:29;;;;;;;8.82;3.85;;;;;;;35.05;14.71;101158.56;7669579;32;37895;-83
2022/10/17 14:59:45;;;;;;;10.30;4.28;;;;;;;35.44;14.62;101156.88;7682233;32;38643;-83
2022/10/17 15:04:10;;;;;;;7.03;3.75;;;;;;;35.33;14.66;101156.91;7683029;32;39308;-83
2022/10/17 15:08:26;;;;;;;7.87;4.07;;;;;;;33.75;16.36;101168.09;7681934;32;40914;-83
2022/10/17 15:12:42;;;;;;;8.90;4.07;;;;;;;33.79;16.04;101172.56;7686071;32;37590;-83
2022/10/17 15:17:17;;;;;;;7.10;3.72;;;;;;;32.13;18.21;101176.13;7686014;32;36830;-83
2022/10/17 15:21:33;;;;;;;11.95;4.60;;;;;;;29.84;21.21;101181.69;7685764;32;39091;-82
2022/10/17 15:25:56;;;;;;;7.43;4.15;;;;;;;28.72;22.67;101179.09;7685966;32;40036;-83
2022/10/17 15:30:25;;;;;;;10.73;4.53;;;;;;;27.18;25.89;101192.25;7685519;32;38128;-83
2022/10/17 15:34:42;;;;;;;11.23;4.75;;;;;;;25.94;28.58;101190.34;7686325;32;37069;-83
2022/10/17 15:39:00;;;;;;;13.30;4.20;;;;;;;25.48;28.82;101190.22;7685649;32;39330;-84
2022/10/17 15:43:16;;;;;;;12.10;4.12;;;;;;;25.15;28.67;101209.59;7671873;32;40006;-85
2022/10/17 15:47:36;;;;;;;11.57;4.72;;;;;;;24.36;29.95;101202.31;7685328;32;38122;-85
2022/10/17 15:51:52;;;;;;;13.35;4.55;;;;;;;24.02;30.65;101216.31;7684883;32;38175;-85
2022/10/17 15:56:24;;;;;;;10.35;4.18;;;;;;;23.21;32.44;101207.34;7672149;32;39376;-85
2022/10/17 16:00:40;;;;;;;11.52;4.80;;;;;;;22.94;33.65;101208.34;7671871;32;39876;-85
2022/10/17 16:04:56;;;;;;;9.98;4.25;;;;;;;22.20;34.61;101213.34;7685515;32;38476;-86
2022/10/17 16:09:12;;;;;;;8.98;5.22;;;;;;;22.13;35.63;101222.09;7684636;32;37064;-84
2022/10/17 16:13:28;;;;;;;8.75;5.20;;;;;;;22.00;36.02;101220.19;7684942;32;40191;-85
2022/10/17 16:17:44;;;;;;;12.73;4.93;;;;;;;21.75;36.40;101225.22;7685377;32;39877;-85
2022/10/17 16:22:01;;;;;;;12.75;5.43;;;;;;;21.69;36.66;101232.00;7683649;32;38703;-85
2022/10/17 16:26:19;;;;;;;16.27;5.30;;;;;;;21.43;36.93;101234.50;7672297;32;36940;-83
2022/10/17 16:30:41;;;;;;;8.82;5.10;;;;;;;21.32;37.48;101231.13;7684905;32;39936;-84
2022/10/17 16:34:58;;;;;;;13.18;5.97;;;;;;;20.32;39.94;101244.63;7687498;32;39698;-85
2022/10/17 16:39:14;;;;;;;10.93;5.03;;;;;;;20.16;39.85;101247.63;7709370;32;39442;-84
2022/10/17 16:43:35;;;;;;;9.80;5.28;;;;;;;19.83;41.01;101255.88;7711254;32;37147;-84
2022/10/17 16:47:52;;;;;;;10.55;4.55;;;;;;;19.69;40.41;101250.22;7711592;32;40389;-85
2022/10/17 16:52:08;;;;;;;13.43;4.72;;;;;;;19.59;41.10;101255.06;7711528;32;39862;-85
2022/10/17 16:56:28;;;;;;;11.10;5.25;;;;;;;19.45;41.54;101255.78;7711733;32;38189;-84
2022/10/17 17:00:44;;;;;;;11.48;6.65;;;;;;;19.37;41.37;101264.75;7711339;32;37135;-85
2022/10/17 17:05:00;;;;;;;18.10;6.03;;;;;;;19.59;40.75;101266.12;7711591;32;40119;-86
2022/10/17 17:09:16;;;;;;;10.48;5.95;;;;;;;18.98;41.59;101268.50;7711457;32;39966;-87
2022/10/17 17:13:32;;;;;;;14.15;6.30;;;;;;;19.23;40.68;101272.09;7711491;32;37921;-85
2022/10/17 17:17:48;;;;;;;10.70;5.82;;;;;;;18.41;43.98;101270.94;7711607;32;37394;-86
2022/10/17 17:22:10;;;;;;;11.93;5.80;;;;;;;18.53;43.29;101276.09;7711407;32;39992;-84
2022/10/17 17:26:29;;;;;;;10.77;5.37;;;;;;;18.52;43.11;101268.91;7711636;32;39886;-84
2022/10/17 17:30:45;;;;;;;10.73;5.03;;;;;;;18.15;44.65;101273.06;7711366;32;37858;-86
2022/10/17 17:35:01;;;;;;;10.23;4.53;;;;;;;18.48;43.31;101270.59;7711022;32;38401;-86
2022/10/17 17:39:17;;;;;;;12.63;5.28;;;;;;;18.44;43.21;101269.53;7711302;32;39548;-85
2022/10/17 17:43:34;;;;;;;10.10;5.72;;;;;;;18.00;44.34;101279.50;7707494;32;40674;-82
2022/10/17 17:47:52;;;;;;;9.52;5.55;;;;;;;18.20;43.85;101281.31;7710269;32;37759;-84
2022/10/17 17:52:07;;;;;;;9.15;5.25;;;;;;;17.72;45.59;101281.84;7710739;32;37079;-84
2022/10/17 17:56:26;;;;;;;10.25;5.30;;;;;;;17.90;44.86;101274.91;7710564;32;39334;-85
2022/10/17 18:00:42;;;;;;;13.15;5.57;;;;;;;17.92;44.67;101275.44;7710764;32;38988;-86
2022/10/17 18:04:58;;;;;;;14.52;6.78;;;;;;;17.64;45.53;101282.44;7706254;32;136927;-85
2022/10/17 18:09:14;;;;;;;11.63;5.82;;;;;;;18.01;44.10;101276.47;7702580;32;37169;-82
2022/10/17 18:13:30;;;;;;;12.13;5.82;;;;;;;17.62;45.34;101270.84;7692088;32;39001;-83
2022/10/17 18:17:48;;;;;;;11.18;5.87;;;;;;;17.56;46.04;101270.06;7695590;32;40886;-82
2022/10/17 18:22:04;;;;;;;14.35;7.03;;;;;;;17.27;46.94;101279.00;7696006;32;37967;-83
2022/10/17 18:26:21;;;;;;;10.75;6.15;;;;;;;17.40;46.61;101279.50;7696120;32;36723;-81
2022/10/17 18:30:39;;;;;;;14.50;6.12;;;;;;;17.06;47.60;101274.66;7699746;32;39328;-82
2022/10/17 18:34:55;;;;;;;15.50;6.20;;;;;;;17.23;47.08;101274.31;7697687;32;39935;-82
2022/10/17 18:39:11;;;;;;;16.67;6.68;;;;;;;16.92;47.70;101279.06;7687160;32;38459;-82
2022/10/17 18:43:27;;;;;;;15.07;7.53;;;;;;;16.95;48.01;101278.53;7695539;32;37145;-82
2022/10/17 18:47:46;;;;;;;16.77;7.90;;;;;;;16.77;48.66;101272.47;7697232;32;39931;-84
2022/10/17 18:52:02;;;;;;;15.38;6.82;;;;;;;16.96;48.00;101274.69;7698036;32;39634;-86
2022/10/17 18:56:19;;;;;;;14.23;7.18;;;;;;;16.67;48.65;101284.31;7696194;32;36304;-86
2022/10/17 19:00:35;;;;;;;10.57;6.50;;;;;;;16.46;50.01;101283.50;7697704;32;37704;-86
2022/10/17 19:04:51;;;;;;;14.27;7.05;;;;;;;16.77;48.71;101283.47;7694918;32;39968;-85
2022/10/17 19:09:09;;;;;;;15.82;7.90;;;;;;;16.65;48.90;101277.44;7705356;32;39901;-86
2022/10/17 19:13:24;;;;;;;12.57;6.55;;;;;;;16.21;50.12;101275.22;7708869;32;37983;-87
2022/10/17 19:17:40;;;;;;;15.90;6.12;;;;;;;16.50;49.28;101273.56;7708825;32;37190;-86
2022/10/17 19:21:57;;;;;;;12.75;6.82;;;;;;;16.30;49.67;101271.66;7709153;32;39329;-86
2022/10/17 19:26:13;;;;;;;14.60;7.15;;;;;;;16.42;50.09;101270.53;7704388;32;39907;-86
2022/10/17 19:30:29;;;;;;;11.27;6.55;;;;;;;16.30;49.88;101274.41;7707805;32;37907;-86
2022/10/17 19:34:45;;;;;;;14.15;7.03;;;;;;;16.06;50.68;101270.53;7708495;32;37993;-86
2022/10/17 19:39:04;;;;;;;15.82;7.25;;;;;;;16.26;49.77;101283.47;7708402;32;40195;-86
2022/10/17 19:43:20;;;;;;;12.07;5.87;;;;;;;16.34;49.06;101270.00;7706285;32;39873;-86
2022/10/17 19:47:37;;;;;;;15.35;6.32;;;;;;;16.44;48.59;101269.19;7707549;32;37844;-86
2022/10/17 19:51:53;;;;;;;12.00;6.47;;;;;;;16.52;48.27;101265.88;7708282;32;37314;-86
2022/10/17 19:56:10;;;;;;;14.10;6.75;;;;;;;16.31;48.91;101272.47;7709420;32;39183;-87
2022/10/17 20:00:27;;;;;;;11.27;6.37;;;;;;;16.51;48.35;101269.72;7711693;32;40818;-87
2022/10/17 20:04:43;;;;;;;13.62;6.57;;;;;;;16.36;49.28;101272.47;7708597;32;37971;-86